sensor_id;sensor_type;location;lat;lon;timestamp;P1;durP1;ratioP1;P2;durP2;ratioP2
35518;SDS011;21627;48.216;16.482;2023-07-30T00:01:11;5.15;;;1.60;;
35518;SDS011;21627;48.216;16.482;2023-07-30T00:03:38;2.22;;;1.67;;
35518;SDS011;21627;48.216;16.482;2023-07-30T00:06:05;3.60;;;1.80;;
35518;SDS011;21627;48.216;16.482;2023-07-30T00:08:32;2.78;;;1.63;;
35518;SDS011;21627;48.216;16.482;2023-07-30T00:10:59;1.85;;;1.65;;
35518;SDS011;21627;48.216;16.482;2023-07-30T00:13:26;2.35;;;1.40;;
35518;SDS011;21627;48.216;16.482;2023-07-30T00:15:53;3.90;;;1.70;;
35518;SDS011;21627;48.216;16.482;2023-07-30T00:18:20;2.33;;;2.00;;
35518;SDS011;21627;48.216;16.482;2023-07-30T00:20:48;2.80;;;1.85;;
35518;SDS011;21627;48.216;16.482;2023-07-30T00:23:15;2.63;;;1.70;;
35518;SDS011;21627;48.216;16.482;2023-07-30T00:25:42;3.03;;;1.88;;
35518;SDS011;21627;48.216;16.482;2023-07-30T00:28:09;2.42;;;1.60;;
35518;SDS011;21627;48.216;16.482;2023-07-30T00:30:36;2.30;;;1.60;;
35518;SDS011;21627;48.216;16.482;2023-07-30T00:33:03;5.97;;;1.80;;
35518;SDS011;21627;48.216;16.482;2023-07-30T00:35:30;2.67;;;1.95;;
35518;SDS011;21627;48.216;16.482;2023-07-30T00:37:57;2.60;;;1.58;;
35518;SDS011;21627;48.216;16.482;2023-07-30T00:40:25;3.25;;;1.60;;
35518;SDS011;21627;48.216;16.482;2023-07-30T00:42:52;2.60;;;1.67;;
35518;SDS011;21627;48.216;16.482;2023-07-30T00:45:19;3.33;;;1.60;;
35518;SDS011;21627;48.216;16.482;2023-07-30T00:47:46;2.58;;;1.77;;
35518;SDS011;21627;48.216;16.482;2023-07-30T00:50:14;2.90;;;1.73;;
35518;SDS011;21627;48.216;16.482;2023-07-30T00:52:43;2.20;;;1.60;;
35518;SDS011;21627;48.216;16.482;2023-07-30T00:55:10;4.03;;;1.77;;
35518;SDS011;21627;48.216;16.482;2023-07-30T00:57:38;2.80;;;1.63;;
35518;SDS011;21627;48.216;16.482;2023-07-30T01:00:07;11.82;;;1.85;;
35518;SDS011;21627;48.216;16.482;2023-07-30T01:02:36;3.25;;;1.98;;
35518;SDS011;21627;48.216;16.482;2023-07-30T01:05:03;3.40;;;1.65;;
35518;SDS011;21627;48.216;16.482;2023-07-30T01:07:31;2.97;;;1.95;;
35518;SDS011;21627;48.216;16.482;2023-07-30T01:09:59;2.83;;;1.80;;
35518;SDS011;21627;48.216;16.482;2023-07-30T01:12:29;3.35;;;1.60;;
35518;SDS011;21627;48.216;16.482;2023-07-30T01:15:00;2.85;;;2.00;;
35518;SDS011;21627;48.216;16.482;2023-07-30T01:17:28;2.85;;;1.60;;
35518;SDS011;21627;48.216;16.482;2023-07-30T01:19:55;2.38;;;1.60;;
35518;SDS011;21627;48.216;16.482;2023-07-30T01:22:22;1.60;;;1.40;;
35518;SDS011;21627;48.216;16.482;2023-07-30T01:24:50;1.98;;;1.55;;
35518;SDS011;21627;48.216;16.482;2023-07-30T01:27:25;2.85;;;1.80;;
35518;SDS011;21627;48.216;16.482;2023-07-30T01:30:03;2.85;;;1.65;;
35518;SDS011;21627;48.216;16.482;2023-07-30T01:32:51;2.28;;;1.60;;
35518;SDS011;21627;48.216;16.482;2023-07-30T01:35:25;2.28;;;1.77;;
35518;SDS011;21627;48.216;16.482;2023-07-30T01:37:54;2.50;;;1.65;;
35518;SDS011;21627;48.216;16.482;2023-07-30T01:40:22;2.90;;;1.88;;
35518;SDS011;21627;48.216;16.482;2023-07-30T01:42:49;2.55;;;1.70;;
35518;SDS011;21627;48.216;16.482;2023-07-30T01:45:17;2.00;;;1.42;;
35518;SDS011;21627;48.216;16.482;2023-07-30T01:47:44;3.53;;;1.80;;
35518;SDS011;21627;48.216;16.482;2023-07-30T01:50:12;3.95;;;1.70;;
35518;SDS011;21627;48.216;16.482;2023-07-30T01:52:39;1.95;;;1.67;;
35518;SDS011;21627;48.216;16.482;2023-07-30T01:55:06;4.35;;;1.73;;
35518;SDS011;21627;48.216;16.482;2023-07-30T01:57:34;2.10;;;1.48;;
35518;SDS011;21627;48.216;16.482;2023-07-30T02:00:01;2.88;;;2.00;;
35518;SDS011;21627;48.216;16.482;2023-07-30T02:02:29;3.63;;;1.83;;
35518;SDS011;21627;48.216;16.482;2023-07-30T02:04:56;11.10;;;1.80;;
35518;SDS011;21627;48.216;16.482;2023-07-30T02:07:24;2.35;;;1.83;;
35518;SDS011;21627;48.216;16.482;2023-07-30T02:09:51;2.55;;;1.70;;
35518;SDS011;21627;48.216;16.482;2023-07-30T02:12:18;1.67;;;1.55;;
35518;SDS011;21627;48.216;16.482;2023-07-30T02:14:45;3.15;;;1.63;;
35518;SDS011;21627;48.216;16.482;2023-07-30T02:17:12;3.25;;;1.75;;
35518;SDS011;21627;48.216;16.482;2023-07-30T02:19:39;3.38;;;1.92;;
35518;SDS011;21627;48.216;16.482;2023-07-30T02:22:06;2.38;;;1.55;;
35518;SDS011;21627;48.216;16.482;2023-07-30T02:24:33;3.20;;;1.50;;
35518;SDS011;21627;48.216;16.482;2023-07-30T02:27:00;2.75;;;1.70;;
35518;SDS011;21627;48.216;16.482;2023-07-30T02:29:27;3.15;;;1.63;;
35518;SDS011;21627;48.216;16.482;2023-07-30T02:31:55;5.75;;;2.13;;
35518;SDS011;21627;48.216;16.482;2023-07-30T02:34:22;2.10;;;1.50;;
35518;SDS011;21627;48.216;16.482;2023-07-30T02:36:49;2.22;;;1.70;;
35518;SDS011;21627;48.216;16.482;2023-07-30T02:39:16;1.88;;;1.38;;
35518;SDS011;21627;48.216;16.482;2023-07-30T02:41:43;2.65;;;1.70;;
35518;SDS011;21627;48.216;16.482;2023-07-30T02:44:10;2.90;;;1.77;;
35518;SDS011;21627;48.216;16.482;2023-07-30T02:46:37;2.15;;;1.58;;
35518;SDS011;21627;48.216;16.482;2023-07-30T02:49:05;2.47;;;1.65;;
35518;SDS011;21627;48.216;16.482;2023-07-30T02:51:32;2.03;;;1.52;;
35518;SDS011;21627;48.216;16.482;2023-07-30T02:54:00;5.10;;;1.85;;
35518;SDS011;21627;48.216;16.482;2023-07-30T02:56:32;2.28;;;1.33;;
35518;SDS011;21627;48.216;16.482;2023-07-30T02:58:59;3.83;;;1.80;;
35518;SDS011;21627;48.216;16.482;2023-07-30T03:01:27;7.15;;;1.73;;
35518;SDS011;21627;48.216;16.482;2023-07-30T03:03:54;4.10;;;1.40;;
35518;SDS011;21627;48.216;16.482;2023-07-30T03:06:21;4.32;;;1.40;;
35518;SDS011;21627;48.216;16.482;2023-07-30T03:08:48;2.97;;;1.80;;
35518;SDS011;21627;48.216;16.482;2023-07-30T03:11:15;2.80;;;1.60;;
35518;SDS011;21627;48.216;16.482;2023-07-30T03:13:42;3.75;;;1.98;;
35518;SDS011;21627;48.216;16.482;2023-07-30T03:16:10;2.33;;;1.45;;
35518;SDS011;21627;48.216;16.482;2023-07-30T03:18:37;4.05;;;1.73;;
35518;SDS011;21627;48.216;16.482;2023-07-30T03:21:04;2.00;;;1.73;;
35518;SDS011;21627;48.216;16.482;2023-07-30T03:23:31;2.55;;;1.92;;
35518;SDS011;21627;48.216;16.482;2023-07-30T03:25:59;3.20;;;1.42;;
35518;SDS011;21627;48.216;16.482;2023-07-30T03:28:29;5.10;;;1.65;;
35518;SDS011;21627;48.216;16.482;2023-07-30T03:30:56;2.58;;;1.52;;
35518;SDS011;21627;48.216;16.482;2023-07-30T03:33:23;1.90;;;1.50;;
35518;SDS011;21627;48.216;16.482;2023-07-30T03:35:50;2.58;;;1.90;;
35518;SDS011;21627;48.216;16.482;2023-07-30T03:38:17;2.95;;;1.63;;
35518;SDS011;21627;48.216;16.482;2023-07-30T03:40:44;5.72;;;1.67;;
35518;SDS011;21627;48.216;16.482;2023-07-30T03:43:11;2.05;;;1.50;;
35518;SDS011;21627;48.216;16.482;2023-07-30T03:45:38;3.90;;;1.70;;
35518;SDS011;21627;48.216;16.482;2023-07-30T03:48:05;2.08;;;1.58;;
35518;SDS011;21627;48.216;16.482;2023-07-30T03:50:33;4.18;;;1.45;;
35518;SDS011;21627;48.216;16.482;2023-07-30T03:53:00;2.13;;;1.42;;
35518;SDS011;21627;48.216;16.482;2023-07-30T03:55:27;2.15;;;1.50;;
35518;SDS011;21627;48.216;16.482;2023-07-30T03:57:54;2.88;;;1.75;;
35518;SDS011;21627;48.216;16.482;2023-07-30T04:00:21;3.42;;;1.52;;
35518;SDS011;21627;48.216;16.482;2023-07-30T04:02:48;2.78;;;1.83;;
35518;SDS011;21627;48.216;16.482;2023-07-30T04:05:16;2.72;;;1.90;;
35518;SDS011;21627;48.216;16.482;2023-07-30T04:07:43;2.50;;;1.83;;
35518;SDS011;21627;48.216;16.482;2023-07-30T04:10:10;2.60;;;1.80;;
35518;SDS011;21627;48.216;16.482;2023-07-30T04:12:37;3.33;;;1.98;;
35518;SDS011;21627;48.216;16.482;2023-07-30T04:15:04;2.13;;;1.38;;
35518;SDS011;21627;48.216;16.482;2023-07-30T04:17:33;2.90;;;1.60;;
35518;SDS011;21627;48.216;16.482;2023-07-30T04:20:03;3.80;;;1.90;;
35518;SDS011;21627;48.216;16.482;2023-07-30T04:22:31;3.60;;;1.95;;
35518;SDS011;21627;48.216;16.482;2023-07-30T04:24:58;2.45;;;1.50;;
35518;SDS011;21627;48.216;16.482;2023-07-30T04:27:25;1.38;;;1.17;;
35518;SDS011;21627;48.216;16.482;2023-07-30T04:29:56;4.60;;;1.65;;
35518;SDS011;21627;48.216;16.482;2023-07-30T04:32:23;2.55;;;1.67;;
35518;SDS011;21627;48.216;16.482;2023-07-30T04:34:50;3.45;;;1.77;;
35518;SDS011;21627;48.216;16.482;2023-07-30T04:37:17;2.97;;;1.90;;
35518;SDS011;21627;48.216;16.482;2023-07-30T04:39:44;3.65;;;1.77;;
35518;SDS011;21627;48.216;16.482;2023-07-30T04:42:11;2.05;;;1.52;;
35518;SDS011;21627;48.216;16.482;2023-07-30T04:44:39;3.10;;;2.08;;
35518;SDS011;21627;48.216;16.482;2023-07-30T04:47:06;2.17;;;1.67;;
35518;SDS011;21627;48.216;16.482;2023-07-30T04:49:33;2.33;;;1.60;;
35518;SDS011;21627;48.216;16.482;2023-07-30T04:52:01;3.30;;;1.88;;
35518;SDS011;21627;48.216;16.482;2023-07-30T04:54:28;2.53;;;1.50;;
35518;SDS011;21627;48.216;16.482;2023-07-30T04:56:55;2.78;;;1.80;;
35518;SDS011;21627;48.216;16.482;2023-07-30T04:59:22;2.97;;;1.58;;
35518;SDS011;21627;48.216;16.482;2023-07-30T05:01:50;2.30;;;2.00;;
35518;SDS011;21627;48.216;16.482;2023-07-30T05:04:17;2.28;;;1.77;;
35518;SDS011;21627;48.216;16.482;2023-07-30T05:06:44;2.55;;;1.90;;
35518;SDS011;21627;48.216;16.482;2023-07-30T05:09:11;3.33;;;1.67;;
35518;SDS011;21627;48.216;16.482;2023-07-30T05:11:38;2.75;;;1.80;;
35518;SDS011;21627;48.216;16.482;2023-07-30T05:14:06;3.25;;;2.28;;
35518;SDS011;21627;48.216;16.482;2023-07-30T05:16:33;2.42;;;1.70;;
35518;SDS011;21627;48.216;16.482;2023-07-30T05:19:02;2.45;;;1.83;;
35518;SDS011;21627;48.216;16.482;2023-07-30T05:21:29;3.83;;;1.80;;
35518;SDS011;21627;48.216;16.482;2023-07-30T05:23:57;1.92;;;1.70;;
35518;SDS011;21627;48.216;16.482;2023-07-30T05:26:24;2.88;;;1.98;;
35518;SDS011;21627;48.216;16.482;2023-07-30T05:28:51;2.60;;;1.77;;
35518;SDS011;21627;48.216;16.482;2023-07-30T05:31:18;3.53;;;2.20;;
35518;SDS011;21627;48.216;16.482;2023-07-30T05:33:45;3.55;;;1.80;;
35518;SDS011;21627;48.216;16.482;2023-07-30T05:36:12;2.60;;;1.98;;
35518;SDS011;21627;48.216;16.482;2023-07-30T05:38:39;5.93;;;2.10;;
35518;SDS011;21627;48.216;16.482;2023-07-30T05:41:06;9.85;;;2.70;;
35518;SDS011;21627;48.216;16.482;2023-07-30T05:43:33;6.78;;;2.05;;
35518;SDS011;21627;48.216;16.482;2023-07-30T05:46:00;8.52;;;2.38;;
35518;SDS011;21627;48.216;16.482;2023-07-30T05:48:27;3.15;;;1.80;;
35518;SDS011;21627;48.216;16.482;2023-07-30T05:50:55;3.28;;;2.10;;
35518;SDS011;21627;48.216;16.482;2023-07-30T05:53:22;6.38;;;2.15;;
35518;SDS011;21627;48.216;16.482;2023-07-30T05:55:49;11.90;;;2.90;;
35518;SDS011;21627;48.216;16.482;2023-07-30T05:58:16;8.32;;;2.50;;
35518;SDS011;21627;48.216;16.482;2023-07-30T06:00:43;3.35;;;2.10;;
35518;SDS011;21627;48.216;16.482;2023-07-30T06:03:11;3.15;;;2.03;;
35518;SDS011;21627;48.216;16.482;2023-07-30T06:05:39;3.45;;;2.00;;
35518;SDS011;21627;48.216;16.482;2023-07-30T06:08:09;2.25;;;1.77;;
35518;SDS011;21627;48.216;16.482;2023-07-30T06:10:36;2.53;;;1.85;;
35518;SDS011;21627;48.216;16.482;2023-07-30T06:13:04;3.45;;;2.15;;
35518;SDS011;21627;48.216;16.482;2023-07-30T06:15:32;2.00;;;1.48;;
35518;SDS011;21627;48.216;16.482;2023-07-30T06:18:00;2.75;;;1.90;;
35518;SDS011;21627;48.216;16.482;2023-07-30T06:20:29;2.60;;;1.70;;
35518;SDS011;21627;48.216;16.482;2023-07-30T06:22:57;3.65;;;2.20;;
35518;SDS011;21627;48.216;16.482;2023-07-30T06:25:24;4.20;;;1.77;;
35518;SDS011;21627;48.216;16.482;2023-07-30T06:27:51;1.92;;;1.45;;
35518;SDS011;21627;48.216;16.482;2023-07-30T06:30:18;2.47;;;1.45;;
35518;SDS011;21627;48.216;16.482;2023-07-30T06:32:45;1.75;;;1.52;;
35518;SDS011;21627;48.216;16.482;2023-07-30T06:35:13;3.80;;;2.10;;
35518;SDS011;21627;48.216;16.482;2023-07-30T06:37:40;1.88;;;1.45;;
35518;SDS011;21627;48.216;16.482;2023-07-30T06:40:07;2.60;;;1.80;;
35518;SDS011;21627;48.216;16.482;2023-07-30T06:42:34;2.97;;;1.73;;
35518;SDS011;21627;48.216;16.482;2023-07-30T06:45:01;4.03;;;1.70;;
35518;SDS011;21627;48.216;16.482;2023-07-30T06:47:30;1.98;;;1.58;;
35518;SDS011;21627;48.216;16.482;2023-07-30T06:49:59;3.63;;;1.80;;
35518;SDS011;21627;48.216;16.482;2023-07-30T06:52:26;4.25;;;1.85;;
35518;SDS011;21627;48.216;16.482;2023-07-30T06:54:53;3.45;;;1.60;;
35518;SDS011;21627;48.216;16.482;2023-07-30T06:57:20;3.42;;;1.85;;
35518;SDS011;21627;48.216;16.482;2023-07-30T06:59:48;1.60;;;1.10;;
35518;SDS011;21627;48.216;16.482;2023-07-30T07:02:15;1.27;;;1.00;;
35518;SDS011;21627;48.216;16.482;2023-07-30T07:04:42;1.48;;;1.20;;
35518;SDS011;21627;48.216;16.482;2023-07-30T07:07:09;1.38;;;1.08;;
35518;SDS011;21627;48.216;16.482;2023-07-30T07:09:36;1.60;;;0.98;;
35518;SDS011;21627;48.216;16.482;2023-07-30T07:12:03;1.52;;;0.90;;
35518;SDS011;21627;48.216;16.482;2023-07-30T07:14:31;1.10;;;0.90;;
35518;SDS011;21627;48.216;16.482;2023-07-30T07:16:58;3.10;;;0.90;;
35518;SDS011;21627;48.216;16.482;2023-07-30T07:19:25;1.52;;;0.90;;
35518;SDS011;21627;48.216;16.482;2023-07-30T07:21:52;2.00;;;0.93;;
35518;SDS011;21627;48.216;16.482;2023-07-30T07:24:19;11.48;;;1.13;;
35518;SDS011;21627;48.216;16.482;2023-07-30T07:26:46;2.85;;;0.93;;
35518;SDS011;21627;48.216;16.482;2023-07-30T07:29:13;0.95;;;0.85;;
35518;SDS011;21627;48.216;16.482;2023-07-30T07:31:40;2.70;;;0.98;;
35518;SDS011;21627;48.216;16.482;2023-07-30T07:34:08;2.05;;;0.95;;
35518;SDS011;21627;48.216;16.482;2023-07-30T07:36:36;1.25;;;1.02;;
35518;SDS011;21627;48.216;16.482;2023-07-30T07:39:04;2.47;;;1.02;;
35518;SDS011;21627;48.216;16.482;2023-07-30T07:41:32;1.65;;;1.00;;
35518;SDS011;21627;48.216;16.482;2023-07-30T07:43:59;4.10;;;1.00;;
35518;SDS011;21627;48.216;16.482;2023-07-30T07:46:27;2.42;;;0.90;;
35518;SDS011;21627;48.216;16.482;2023-07-30T07:48:54;2.13;;;0.98;;
35518;SDS011;21627;48.216;16.482;2023-07-30T07:51:21;1.20;;;0.80;;
35518;SDS011;21627;48.216;16.482;2023-07-30T07:53:48;1.63;;;0.88;;
35518;SDS011;21627;48.216;16.482;2023-07-30T07:56:15;0.98;;;0.70;;
35518;SDS011;21627;48.216;16.482;2023-07-30T07:58:42;1.48;;;1.02;;
35518;SDS011;21627;48.216;16.482;2023-07-30T08:01:09;1.65;;;1.13;;
35518;SDS011;21627;48.216;16.482;2023-07-30T08:03:36;1.20;;;1.00;;
35518;SDS011;21627;48.216;16.482;2023-07-30T08:06:03;3.05;;;1.02;;
35518;SDS011;21627;48.216;16.482;2023-07-30T08:08:32;2.88;;;1.10;;
35518;SDS011;21627;48.216;16.482;2023-07-30T08:11:04;4.30;;;0.98;;
35518;SDS011;21627;48.216;16.482;2023-07-30T08:13:33;2.20;;;1.15;;
35518;SDS011;21627;48.216;16.482;2023-07-30T08:16:01;2.72;;;1.63;;
35518;SDS011;21627;48.216;16.482;2023-07-30T08:18:29;1.27;;;1.10;;
35518;SDS011;21627;48.216;16.482;2023-07-30T08:20:56;1.70;;;1.30;;
35518;SDS011;21627;48.216;16.482;2023-07-30T08:23:23;2.67;;;1.10;;
35518;SDS011;21627;48.216;16.482;2023-07-30T08:25:50;1.80;;;1.30;;
35518;SDS011;21627;48.216;16.482;2023-07-30T08:28:18;1.63;;;1.42;;
35518;SDS011;21627;48.216;16.482;2023-07-30T08:30:45;4.78;;;1.50;;
35518;SDS011;21627;48.216;16.482;2023-07-30T08:33:12;2.13;;;1.42;;
35518;SDS011;21627;48.216;16.482;2023-07-30T08:35:41;1.55;;;1.20;;
35518;SDS011;21627;48.216;16.482;2023-07-30T08:38:08;2.20;;;1.45;;
35518;SDS011;21627;48.216;16.482;2023-07-30T08:40:35;3.75;;;1.50;;
35518;SDS011;21627;48.216;16.482;2023-07-30T08:43:02;3.88;;;1.63;;
35518;SDS011;21627;48.216;16.482;2023-07-30T08:45:31;2.42;;;1.60;;
35518;SDS011;21627;48.216;16.482;2023-07-30T08:47:58;1.60;;;1.10;;
35518;SDS011;21627;48.216;16.482;2023-07-30T08:50:25;3.83;;;1.45;;
35518;SDS011;21627;48.216;16.482;2023-07-30T08:52:54;2.08;;;1.52;;
35518;SDS011;21627;48.216;16.482;2023-07-30T08:55:24;1.98;;;1.33;;
35518;SDS011;21627;48.216;16.482;2023-07-30T08:57:51;3.40;;;1.55;;
35518;SDS011;21627;48.216;16.482;2023-07-30T09:00:20;1.98;;;1.40;;
35518;SDS011;21627;48.216;16.482;2023-07-30T09:02:52;2.53;;;1.77;;
35518;SDS011;21627;48.216;16.482;2023-07-30T09:05:22;1.60;;;1.25;;
35518;SDS011;21627;48.216;16.482;2023-07-30T09:07:49;2.10;;;1.55;;
35518;SDS011;21627;48.216;16.482;2023-07-30T09:10:17;5.60;;;1.48;;
35518;SDS011;21627;48.216;16.482;2023-07-30T09:12:44;1.95;;;1.60;;
35518;SDS011;21627;48.216;16.482;2023-07-30T09:15:14;2.20;;;1.65;;
35518;SDS011;21627;48.216;16.482;2023-07-30T09:17:41;2.28;;;1.73;;
35518;SDS011;21627;48.216;16.482;2023-07-30T09:20:08;1.98;;;1.48;;
35518;SDS011;21627;48.216;16.482;2023-07-30T09:22:37;2.42;;;1.40;;
35518;SDS011;21627;48.216;16.482;2023-07-30T09:25:07;3.05;;;1.63;;
35518;SDS011;21627;48.216;16.482;2023-07-30T09:27:35;3.40;;;1.52;;
35518;SDS011;21627;48.216;16.482;2023-07-30T09:30:02;10.23;;;1.73;;
35518;SDS011;21627;48.216;16.482;2023-07-30T09:32:33;2.53;;;1.40;;
35518;SDS011;21627;48.216;16.482;2023-07-30T09:35:05;1.95;;;1.50;;
35518;SDS011;21627;48.216;16.482;2023-07-30T09:37:40;2.65;;;1.85;;
35518;SDS011;21627;48.216;16.482;2023-07-30T09:40:09;2.10;;;1.67;;
35518;SDS011;21627;48.216;16.482;2023-07-30T09:42:43;4.38;;;1.70;;
35518;SDS011;21627;48.216;16.482;2023-07-30T09:45:19;2.33;;;1.70;;
35518;SDS011;21627;48.216;16.482;2023-07-30T09:47:49;3.30;;;1.48;;
35518;SDS011;21627;48.216;16.482;2023-07-30T09:50:18;2.03;;;1.40;;
35518;SDS011;21627;48.216;16.482;2023-07-30T09:52:46;2.55;;;1.55;;
35518;SDS011;21627;48.216;16.482;2023-07-30T09:55:13;2.00;;;1.60;;
35518;SDS011;21627;48.216;16.482;2023-07-30T09:57:41;8.77;;;1.98;;
35518;SDS011;21627;48.216;16.482;2023-07-30T10:00:09;2.08;;;1.50;;
35518;SDS011;21627;48.216;16.482;2023-07-30T10:02:38;5.20;;;1.48;;
35518;SDS011;21627;48.216;16.482;2023-07-30T10:05:11;2.67;;;1.42;;
35518;SDS011;21627;48.216;16.482;2023-07-30T10:07:56;1.98;;;1.45;;
35518;SDS011;21627;48.216;16.482;2023-07-30T10:10:28;4.60;;;1.50;;
35518;SDS011;21627;48.216;16.482;2023-07-30T10:12:58;2.53;;;1.25;;
35518;SDS011;21627;48.216;16.482;2023-07-30T10:15:29;1.35;;;0.93;;
35518;SDS011;21627;48.216;16.482;2023-07-30T10:18:01;2.63;;;2.35;;
35518;SDS011;21627;48.216;16.482;2023-07-30T10:20:30;1.75;;;1.30;;
35518;SDS011;21627;48.216;16.482;2023-07-30T10:22:59;1.65;;;1.25;;
35518;SDS011;21627;48.216;16.482;2023-07-30T10:28:38;1.30;;;0.88;;
35518;SDS011;21627;48.216;16.482;2023-07-30T10:31:10;1.67;;;1.30;;
35518;SDS011;21627;48.216;16.482;2023-07-30T10:33:47;2.13;;;1.27;;
35518;SDS011;21627;48.216;16.482;2023-07-30T10:36:18;2.70;;;1.35;;
35518;SDS011;21627;48.216;16.482;2023-07-30T10:39:13;3.22;;;1.38;;
35518;SDS011;21627;48.216;16.482;2023-07-30T10:41:55;4.07;;;1.23;;
35518;SDS011;21627;48.216;16.482;2023-07-30T10:44:32;2.92;;;1.50;;
35518;SDS011;21627;48.216;16.482;2023-07-30T10:47:01;2.33;;;1.23;;
35518;SDS011;21627;48.216;16.482;2023-07-30T10:49:38;4.00;;;1.40;;
35518;SDS011;21627;48.216;16.482;2023-07-30T10:52:10;3.00;;;1.65;;
35518;SDS011;21627;48.216;16.482;2023-07-30T10:54:37;2.47;;;1.52;;
35518;SDS011;21627;48.216;16.482;2023-07-30T10:57:05;5.05;;;2.10;;
35518;SDS011;21627;48.216;16.482;2023-07-30T10:59:33;15.02;;;3.25;;
35518;SDS011;21627;48.216;16.482;2023-07-30T11:02:04;11.60;;;2.78;;
35518;SDS011;21627;48.216;16.482;2023-07-30T11:04:34;8.95;;;2.95;;
35518;SDS011;21627;48.216;16.482;2023-07-30T11:07:02;4.78;;;2.15;;
35518;SDS011;21627;48.216;16.482;2023-07-30T11:09:30;6.13;;;2.25;;
35518;SDS011;21627;48.216;16.482;2023-07-30T11:11:57;3.95;;;2.25;;
35518;SDS011;21627;48.216;16.482;2023-07-30T11:14:25;8.32;;;2.10;;
35518;SDS011;21627;48.216;16.482;2023-07-30T11:16:54;2.97;;;1.80;;
35518;SDS011;21627;48.216;16.482;2023-07-30T11:19:25;6.03;;;1.85;;
35518;SDS011;21627;48.216;16.482;2023-07-30T11:21:54;3.05;;;1.60;;
35518;SDS011;21627;48.216;16.482;2023-07-30T11:24:35;2.35;;;2.00;;
35518;SDS011;21627;48.216;16.482;2023-07-30T11:27:03;3.10;;;1.92;;
35518;SDS011;21627;48.216;16.482;2023-07-30T11:29:31;3.33;;;1.80;;
35518;SDS011;21627;48.216;16.482;2023-07-30T11:31:58;4.82;;;1.90;;
35518;SDS011;21627;48.216;16.482;2023-07-30T11:34:28;3.65;;;1.77;;
35518;SDS011;21627;48.216;16.482;2023-07-30T11:36:59;14.63;;;2.90;;
35518;SDS011;21627;48.216;16.482;2023-07-30T11:39:26;3.30;;;1.80;;
35518;SDS011;21627;48.216;16.482;2023-07-30T11:41:54;3.05;;;1.65;;
35518;SDS011;21627;48.216;16.482;2023-07-30T11:44:31;2.38;;;1.83;;
35518;SDS011;21627;48.216;16.482;2023-07-30T11:47:05;2.70;;;1.67;;
35518;SDS011;21627;48.216;16.482;2023-07-30T11:49:33;1.88;;;1.60;;
35518;SDS011;21627;48.216;16.482;2023-07-30T11:52:03;1.90;;;1.50;;
35518;SDS011;21627;48.216;16.482;2023-07-30T11:54:31;2.20;;;1.83;;
35518;SDS011;21627;48.216;16.482;2023-07-30T11:56:59;2.33;;;1.52;;
35518;SDS011;21627;48.216;16.482;2023-07-30T11:59:26;2.30;;;1.63;;
35518;SDS011;21627;48.216;16.482;2023-07-30T12:01:53;3.55;;;1.70;;
35518;SDS011;21627;48.216;16.482;2023-07-30T12:04:20;5.18;;;1.88;;
35518;SDS011;21627;48.216;16.482;2023-07-30T12:06:48;5.47;;;1.63;;
35518;SDS011;21627;48.216;16.482;2023-07-30T12:09:21;5.63;;;1.67;;
35518;SDS011;21627;48.216;16.482;2023-07-30T12:11:52;11.52;;;2.13;;
35518;SDS011;21627;48.216;16.482;2023-07-30T12:14:22;2.70;;;1.25;;
35518;SDS011;21627;48.216;16.482;2023-07-30T12:17:19;4.22;;;1.10;;
35518;SDS011;21627;48.216;16.482;2023-07-30T12:19:46;0.95;;;0.70;;
35518;SDS011;21627;48.216;16.482;2023-07-30T12:22:13;5.05;;;0.90;;
35518;SDS011;21627;48.216;16.482;2023-07-30T12:24:41;9.05;;;1.10;;
35518;SDS011;21627;48.216;16.482;2023-07-30T12:27:09;1.90;;;0.88;;
35518;SDS011;21627;48.216;16.482;2023-07-30T12:29:36;1.13;;;0.90;;
35518;SDS011;21627;48.216;16.482;2023-07-30T12:32:03;2.63;;;1.10;;
35518;SDS011;21627;48.216;16.482;2023-07-30T12:34:30;3.08;;;1.25;;
35518;SDS011;21627;48.216;16.482;2023-07-30T12:36:57;2.55;;;1.38;;
35518;SDS011;21627;48.216;16.482;2023-07-30T12:39:26;1.50;;;1.00;;
35518;SDS011;21627;48.216;16.482;2023-07-30T12:41:53;1.25;;;1.13;;
35518;SDS011;21627;48.216;16.482;2023-07-30T12:44:20;2.42;;;1.50;;
35518;SDS011;21627;48.216;16.482;2023-07-30T12:46:47;1.95;;;1.30;;
35518;SDS011;21627;48.216;16.482;2023-07-30T12:49:14;1.35;;;1.20;;
35518;SDS011;21627;48.216;16.482;2023-07-30T12:51:41;1.65;;;1.25;;
35518;SDS011;21627;48.216;16.482;2023-07-30T12:54:09;2.30;;;1.40;;
35518;SDS011;21627;48.216;16.482;2023-07-30T12:56:36;4.80;;;1.30;;
35518;SDS011;21627;48.216;16.482;2023-07-30T12:59:03;5.70;;;1.50;;
35518;SDS011;21627;48.216;16.482;2023-07-30T13:01:30;1.65;;;1.40;;
35518;SDS011;21627;48.216;16.482;2023-07-30T13:03:59;3.58;;;1.50;;
35518;SDS011;21627;48.216;16.482;2023-07-30T13:06:28;3.95;;;1.70;;
35518;SDS011;21627;48.216;16.482;2023-07-30T13:08:57;4.00;;;1.90;;
35518;SDS011;21627;48.216;16.482;2023-07-30T13:11:26;4.70;;;1.60;;
35518;SDS011;21627;48.216;16.482;2023-07-30T13:13:56;3.10;;;1.52;;
35518;SDS011;21627;48.216;16.482;2023-07-30T13:16:28;2.70;;;1.30;;
35518;SDS011;21627;48.216;16.482;2023-07-30T13:18:59;2.20;;;1.30;;
35518;SDS011;21627;48.216;16.482;2023-07-30T13:21:28;1.63;;;1.10;;
35518;SDS011;21627;48.216;16.482;2023-07-30T13:23:57;3.08;;;1.27;;
35518;SDS011;21627;48.216;16.482;2023-07-30T13:26:26;1.40;;;0.98;;
35518;SDS011;21627;48.216;16.482;2023-07-30T13:28:55;1.92;;;1.17;;
35518;SDS011;21627;48.216;16.482;2023-07-30T13:31:24;1.42;;;1.20;;
35518;SDS011;21627;48.216;16.482;2023-07-30T13:33:52;3.63;;;1.85;;
35518;SDS011;21627;48.216;16.482;2023-07-30T13:36:21;4.55;;;1.67;;
35518;SDS011;21627;48.216;16.482;2023-07-30T13:38:50;3.22;;;1.60;;
35518;SDS011;21627;48.216;16.482;2023-07-30T13:41:19;2.67;;;1.40;;
35518;SDS011;21627;48.216;16.482;2023-07-30T13:43:48;1.88;;;1.63;;
35518;SDS011;21627;48.216;16.482;2023-07-30T13:46:17;2.20;;;1.60;;
35518;SDS011;21627;48.216;16.482;2023-07-30T13:48:46;2.28;;;1.58;;
35518;SDS011;21627;48.216;16.482;2023-07-30T13:51:15;1.95;;;1.50;;
35518;SDS011;21627;48.216;16.482;2023-07-30T13:53:43;2.45;;;1.65;;
35518;SDS011;21627;48.216;16.482;2023-07-30T13:56:12;1.90;;;1.40;;
35518;SDS011;21627;48.216;16.482;2023-07-30T13:58:43;4.03;;;1.48;;
35518;SDS011;21627;48.216;16.482;2023-07-30T14:01:11;5.03;;;1.50;;
35518;SDS011;21627;48.216;16.482;2023-07-30T14:03:43;4.28;;;1.38;;
35518;SDS011;21627;48.216;16.482;2023-07-30T14:06:12;4.88;;;1.35;;
35518;SDS011;21627;48.216;16.482;2023-07-30T14:08:41;3.05;;;1.40;;
35518;SDS011;21627;48.216;16.482;2023-07-30T14:11:10;1.42;;;1.13;;
35518;SDS011;21627;48.216;16.482;2023-07-30T14:13:38;1.92;;;1.13;;
35518;SDS011;21627;48.216;16.482;2023-07-30T14:16:08;2.58;;;1.15;;
35518;SDS011;21627;48.216;16.482;2023-07-30T14:18:37;1.58;;;1.05;;
35518;SDS011;21627;48.216;16.482;2023-07-30T14:21:06;1.60;;;1.10;;
35518;SDS011;21627;48.216;16.482;2023-07-30T14:23:35;1.45;;;1.23;;
35518;SDS011;21627;48.216;16.482;2023-07-30T14:26:04;2.00;;;1.00;;
35518;SDS011;21627;48.216;16.482;2023-07-30T14:28:32;1.55;;;0.85;;
35518;SDS011;21627;48.216;16.482;2023-07-30T14:31:00;4.28;;;1.40;;
35518;SDS011;21627;48.216;16.482;2023-07-30T14:33:27;2.40;;;1.17;;
35518;SDS011;21627;48.216;16.482;2023-07-30T14:35:55;1.58;;;1.00;;
35518;SDS011;21627;48.216;16.482;2023-07-30T14:38:23;1.88;;;1.38;;
35518;SDS011;21627;48.216;16.482;2023-07-30T14:40:51;1.33;;;1.00;;
35518;SDS011;21627;48.216;16.482;2023-07-30T14:43:19;2.03;;;1.10;;